sensor_id;sensor_type;location;lat;lon;timestamp;pressure;altitude;pressure_sealevel;temperature;humidity
52935;BME280;38802;50.198;19.796;2023-04-01T00:01:12;94464.75;;;6.99;80.85
52935;BME280;38802;50.198;19.796;2023-04-01T00:03:44;94468.45;;;6.97;81.13
52935;BME280;38802;50.198;19.796;2023-04-01T00:06:14;94459.98;;;6.93;81.01
52935;BME280;38802;50.198;19.796;2023-04-01T00:08:42;94458.48;;;6.87;80.98
52935;BME280;38802;50.198;19.796;2023-04-01T00:11:12;94460.40;;;6.87;81.20
52935;BME280;38802;50.198;19.796;2023-04-01T00:13:41;94454.41;;;6.82;81.28
52935;BME280;38802;50.198;19.796;2023-04-01T00:16:09;94453.92;;;6.80;81.31
52935;BME280;38802;50.198;19.796;2023-04-01T00:18:50;94452.40;;;6.77;81.38
52935;BME280;38802;50.198;19.796;2023-04-01T00:21:19;94449.05;;;6.75;81.54
52935;BME280;38802;50.198;19.796;2023-04-01T00:23:49;94447.66;;;6.72;81.59
52935;BME280;38802;50.198;19.796;2023-04-01T00:26:18;94444.02;;;6.67;81.38
52935;BME280;38802;50.198;19.796;2023-04-01T00:28:49;94438.13;;;6.66;81.68
52935;BME280;38802;50.198;19.796;2023-04-01T00:31:18;94437.16;;;6.63;81.73
52935;BME280;38802;50.198;19.796;2023-04-01T00:33:46;94432.10;;;6.62;81.88
52935;BME280;38802;50.198;19.796;2023-04-01T00:36:17;94434.02;;;6.54;81.78
52935;BME280;38802;50.198;19.796;2023-04-01T00:38:46;94429.18;;;6.50;81.52
52935;BME280;38802;50.198;19.796;2023-04-01T00:41:15;94432.45;;;6.49;81.81
52935;BME280;38802;50.198;19.796;2023-04-01T00:43:48;94430.23;;;6.43;81.65
52935;BME280;38802;50.198;19.796;2023-04-01T00:46:17;94428.56;;;6.39;81.63
52935;BME280;38802;50.198;19.796;2023-04-01T00:48:48;94428.08;;;6.37;81.76
52935;BME280;38802;50.198;19.796;2023-04-01T00:51:24;94426.16;;;6.31;81.90
52935;BME280;38802;50.198;19.796;2023-04-01T00:53:56;94429.02;;;6.27;81.82
52935;BME280;38802;50.198;19.796;2023-04-01T00:56:27;94428.58;;;6.26;82.11
52935;BME280;38802;50.198;19.796;2023-04-01T00:59:02;94430.08;;;6.21;81.99
52935;BME280;38802;50.198;19.796;2023-04-01T01:01:32;94438.80;;;6.20;82.30
52935;BME280;38802;50.198;19.796;2023-04-01T01:04:02;94434.35;;;6.16;82.33
52935;BME280;38802;50.198;19.796;2023-04-01T01:06:50;94432.16;;;6.14;82.50
52935;BME280;38802;50.198;19.796;2023-04-01T01:09:56;94428.27;;;6.13;82.62
52935;BME280;38802;50.198;19.796;2023-04-01T01:12:44;94422.27;;;6.09;82.27
52935;BME280;38802;50.198;19.796;2023-04-01T01:15:20;94427.31;;;6.08;82.45
52935;BME280;38802;50.198;19.796;2023-04-01T01:17:59;94428.80;;;6.05;82.41
52935;BME280;38802;50.198;19.796;2023-04-01T01:34:51;94433.17;;;6.04;83.88
52935;BME280;38802;50.198;19.796;2023-04-01T01:37:25;94435.98;;;6.08;84.06
52935;BME280;38802;50.198;19.796;2023-04-01T01:39:58;94445.68;;;6.09;84.22
52935;BME280;38802;50.198;19.796;2023-04-01T01:42:31;94446.47;;;6.10;84.31
52935;BME280;38802;50.198;19.796;2023-04-01T01:45:04;94448.57;;;6.13;84.17
52935;BME280;38802;50.198;19.796;2023-04-01T01:47:34;94452.64;;;6.16;84.23
52935;BME280;38802;50.198;19.796;2023-04-01T01:50:05;94450.19;;;6.18;84.16
52935;BME280;38802;50.198;19.796;2023-04-01T01:52:34;94452.64;;;6.23;84.23
52935;BME280;38802;50.198;19.796;2023-04-01T01:55:22;94453.36;;;6.26;84.27
52935;BME280;38802;50.198;19.796;2023-04-01T01:57:52;94448.80;;;6.33;84.37
52935;BME280;38802;50.198;19.796;2023-04-01T02:00:20;94447.77;;;6.35;84.42
52935;BME280;38802;50.198;19.796;2023-04-01T02:02:50;94447.01;;;6.37;84.33
52935;BME280;38802;50.198;19.796;2023-04-01T02:05:22;94442.16;;;6.41;84.49
52935;BME280;38802;50.198;19.796;2023-04-01T02:08:12;94445.73;;;6.41;84.44
52935;BME280;38802;50.198;19.796;2023-04-01T02:10:45;94445.80;;;6.44;84.48
52935;BME280;38802;50.198;19.796;2023-04-01T02:13:24;94441.91;;;6.43;84.39
52935;BME280;38802;50.198;19.796;2023-04-01T02:15:56;94441.94;;;6.43;84.42
52935;BME280;38802;50.198;19.796;2023-04-01T02:18:29;94446.64;;;6.45;84.52
52935;BME280;38802;50.198;19.796;2023-04-01T02:20:58;94449.09;;;6.44;84.57
52935;BME280;38802;50.198;19.796;2023-04-01T02:23:28;94443.66;;;6.45;84.50
52935;BME280;38802;50.198;19.796;2023-04-01T02:25:57;94446.98;;;6.46;84.52
52935;BME280;38802;50.198;19.796;2023-04-01T02:28:25;94448.61;;;6.47;84.68
52935;BME280;38802;50.198;19.796;2023-04-01T02:30:55;94455.80;;;6.46;84.46
52935;BME280;38802;50.198;19.796;2023-04-01T02:33:24;94459.09;;;6.48;84.51
52935;BME280;38802;50.198;19.796;2023-04-01T02:35:53;94455.23;;;6.52;84.75
52935;BME280;38802;50.198;19.796;2023-04-01T02:38:21;94459.16;;;6.51;84.57
52935;BME280;38802;50.198;19.796;2023-04-01T02:40:56;94460.39;;;6.53;84.69
52935;BME280;38802;50.198;19.796;2023-04-01T02:43:24;94463.75;;;6.51;84.49
52935;BME280;38802;50.198;19.796;2023-04-01T02:45:53;94466.81;;;6.52;84.66
52935;BME280;38802;50.198;19.796;2023-04-01T02:48:21;94471.45;;;6.50;84.56
52935;BME280;38802;50.198;19.796;2023-04-01T02:50:49;94473.02;;;6.52;84.77
52935;BME280;38802;50.198;19.796;2023-04-01T02:53:17;94477.11;;;6.51;84.82
52935;BME280;38802;50.198;19.796;2023-04-01T02:55:46;94478.79;;;6.49;84.86
52935;BME280;38802;50.198;19.796;2023-04-01T02:58:14;94482.54;;;6.48;84.67
52935;BME280;38802;50.198;19.796;2023-04-01T03:00:42;94482.27;;;6.49;84.67
52935;BME280;38802;50.198;19.796;2023-04-01T03:03:10;94483.00;;;6.48;84.68
52935;BME280;38802;50.198;19.796;2023-04-01T03:05:39;94482.39;;;6.50;84.92
52935;BME280;38802;50.198;19.796;2023-04-01T03:08:07;94489.22;;;6.48;84.74
52935;BME280;38802;50.198;19.796;2023-04-01T03:10:35;94492.32;;;6.48;84.99
52935;BME280;38802;50.198;19.796;2023-04-01T03:13:04;94489.30;;;6.48;84.86
52935;BME280;38802;50.198;19.796;2023-04-01T03:15:32;94495.27;;;6.48;84.87
52935;BME280;38802;50.198;19.796;2023-04-01T03:18:00;94492.18;;;6.48;84.79
52935;BME280;38802;50.198;19.796;2023-04-01T03:20:28;94492.35;;;6.48;84.86
52935;BME280;38802;50.198;19.796;2023-04-01T03:22:56;94489.63;;;6.48;84.71
52935;BME280;38802;50.198;19.796;2023-04-01T03:25:27;94486.08;;;6.49;84.90
52935;BME280;38802;50.198;19.796;2023-04-01T03:27:56;94489.35;;;6.49;84.84
52935;BME280;38802;50.198;19.796;2023-04-01T03:30:27;94480.91;;;6.49;84.94
52935;BME280;38802;50.198;19.796;2023-04-01T03:32:58;94479.75;;;6.46;85.11
52935;BME280;38802;50.198;19.796;2023-04-01T03:35:27;94482.67;;;6.45;85.08
52935;BME280;38802;50.198;19.796;2023-04-01T03:37:55;94481.63;;;6.41;85.21
52935;BME280;38802;50.198;19.796;2023-04-01T03:40:24;94482.23;;;6.42;85.44
52935;BME280;38802;50.198;19.796;2023-04-01T03:42:53;94480.55;;;6.40;85.26
52935;BME280;38802;50.198;19.796;2023-04-01T03:45:22;94477.50;;;6.39;85.25
52935;BME280;38802;50.198;19.796;2023-04-01T03:47:50;94481.33;;;6.41;85.41
52935;BME280;38802;50.198;19.796;2023-04-01T03:50:19;94478.98;;;6.40;85.29
52935;BME280;38802;50.198;19.796;2023-04-01T03:52:47;94479.39;;;6.41;85.44
52935;BME280;38802;50.198;19.796;2023-04-01T03:55:15;94477.66;;;6.41;85.66
52935;BME280;38802;50.198;19.796;2023-04-01T03:57:44;94475.83;;;6.41;85.61
52935;BME280;38802;50.198;19.796;2023-04-01T04:00:16;94474.48;;;6.42;85.51
52935;BME280;38802;50.198;19.796;2023-04-01T04:02:45;94479.77;;;6.43;85.50
52935;BME280;38802;50.198;19.796;2023-04-01T04:05:16;94480.67;;;6.42;85.64
52935;BME280;38802;50.198;19.796;2023-04-01T04:07:45;94484.80;;;6.42;85.48
52935;BME280;38802;50.198;19.796;2023-04-01T04:10:13;94489.30;;;6.44;85.68
52935;BME280;38802;50.198;19.796;2023-04-01T04:12:41;94491.32;;;6.43;85.49
52935;BME280;38802;50.198;19.796;2023-04-01T04:15:10;94495.42;;;6.43;85.53
52935;BME280;38802;50.198;19.796;2023-04-01T04:17:39;94493.92;;;6.44;85.62
52935;BME280;38802;50.198;19.796;2023-04-01T04:20:07;94496.05;;;6.46;85.59
52935;BME280;38802;50.198;19.796;2023-04-01T04:22:36;94495.30;;;6.46;85.57
52935;BME280;38802;50.198;19.796;2023-04-01T04:25:06;94497.27;;;6.47;85.74
52935;BME280;38802;50.198;19.796;2023-04-01T04:27:35;94497.55;;;6.48;85.74
52935;BME280;38802;50.198;19.796;2023-04-01T04:30:08;94499.70;;;6.49;85.92
52935;BME280;38802;50.198;19.796;2023-04-01T04:32:36;94497.66;;;6.48;85.69
52935;BME280;38802;50.198;19.796;2023-04-01T04:35:05;94498.23;;;6.50;85.82
52935;BME280;38802;50.198;19.796;2023-04-01T04:37:34;94496.41;;;6.53;85.89
52935;BME280;38802;50.198;19.796;2023-04-01T04:40:03;94495.93;;;6.53;85.89
52935;BME280;38802;50.198;19.796;2023-04-01T04:42:31;94493.09;;;6.53;85.78
52935;BME280;38802;50.198;19.796;2023-04-01T04:45:06;94491.98;;;6.56;85.92
52935;BME280;38802;50.198;19.796;2023-04-01T04:47:35;94491.54;;;6.57;86.05
52935;BME280;38802;50.198;19.796;2023-04-01T04:50:03;94489.63;;;6.57;86.04
52935;BME280;38802;50.198;19.796;2023-04-01T04:52:32;94490.64;;;6.57;86.03
52935;BME280;38802;50.198;19.796;2023-04-01T04:55:00;94490.45;;;6.61;86.03
52935;BME280;38802;50.198;19.796;2023-04-01T04:57:28;94487.13;;;6.62;86.17
52935;BME280;38802;50.198;19.796;2023-04-01T04:59:57;94489.50;;;6.62;86.08
52935;BME280;38802;50.198;19.796;2023-04-01T05:02:45;94491.81;;;6.61;86.02
52935;BME280;38802;50.198;19.796;2023-04-01T05:05:14;94493.09;;;6.63;86.05
52935;BME280;38802;50.198;19.796;2023-04-01T05:07:42;94497.11;;;6.66;86.16
52935;BME280;38802;50.198;19.796;2023-04-01T05:10:10;94494.38;;;6.67;86.17
52935;BME280;38802;50.198;19.796;2023-04-01T05:12:39;94495.92;;;6.67;86.08
52935;BME280;38802;50.198;19.796;2023-04-01T05:15:09;94499.64;;;6.70;86.02
52935;BME280;38802;50.198;19.796;2023-04-01T05:17:38;94497.15;;;6.73;86.02
52935;BME280;38802;50.198;19.796;2023-04-01T05:20:07;94496.20;;;6.75;85.99
52935;BME280;38802;50.198;19.796;2023-04-01T05:22:35;94501.45;;;6.78;85.99
52935;BME280;38802;50.198;19.796;2023-04-01T05:25:03;94501.10;;;6.82;86.06
52935;BME280;38802;50.198;19.796;2023-04-01T05:27:31;94498.58;;;6.86;86.09
52935;BME280;38802;50.198;19.796;2023-04-01T05:30:00;94499.88;;;6.89;86.09
52935;BME280;38802;50.198;19.796;2023-04-01T05:32:42;94500.38;;;6.91;86.13
52935;BME280;38802;50.198;19.796;2023-04-01T05:35:12;94496.80;;;6.92;85.99
52935;BME280;38802;50.198;19.796;2023-04-01T05:37:40;94499.09;;;6.96;85.96
52935;BME280;38802;50.198;19.796;2023-04-01T05:40:08;94499.30;;;7.03;85.96
52935;BME280;38802;50.198;19.796;2023-04-01T05:42:37;94497.37;;;7.08;86.01
52935;BME280;38802;50.198;19.796;2023-04-01T05:45:06;94499.30;;;7.15;86.17
52935;BME280;38802;50.198;19.796;2023-04-01T05:48:01;94497.61;;;7.20;86.13
52935;BME280;38802;50.198;19.796;2023-04-01T05:50:32;94492.31;;;7.25;86.00
52935;BME280;38802;50.198;19.796;2023-04-01T05:53:02;94488.52;;;7.30;85.96
52935;BME280;38802;50.198;19.796;2023-04-01T05:55:30;94490.66;;;7.36;86.12
52935;BME280;38802;50.198;19.796;2023-04-01T05:57:59;94488.75;;;7.42;85.86
52935;BME280;38802;50.198;19.796;2023-04-01T06:00:27;94490.06;;;7.48;85.80
52935;BME280;38802;50.198;19.796;2023-04-01T06:02:58;94487.02;;;7.49;85.72
52935;BME280;38802;50.198;19.796;2023-04-01T06:05:29;94490.34;;;7.50;85.54
52935;BME280;38802;50.198;19.796;2023-04-01T06:08:05;94490.99;;;7.50;85.40
52935;BME280;38802;50.198;19.796;2023-04-01T06:13:38;94489.20;;;7.53;85.48
52935;BME280;38802;50.198;19.796;2023-04-01T06:25:32;94490.58;;;7.71;85.19
52935;BME280;38802;50.198;19.796;2023-04-01T06:31:50;94489.59;;;7.72;85.08
52935;BME280;38802;50.198;19.796;2023-04-01T06:43:14;94496.70;;;7.73;84.82
52935;BME280;38802;50.198;19.796;2023-04-01T06:49:16;94491.05;;;7.94;84.44
52935;BME280;38802;50.198;19.796;2023-04-01T06:52:27;94494.71;;;7.99;84.32
52935;BME280;38802;50.198;19.796;2023-04-01T06:55:41;94492.67;;;8.10;84.44
52935;BME280;38802;50.198;19.796;2023-04-01T06:58:37;94494.54;;;8.21;84.02
52935;BME280;38802;50.198;19.796;2023-04-01T07:01:12;94499.58;;;8.28;83.92
52935;BME280;38802;50.198;19.796;2023-04-01T07:03:43;94499.80;;;8.33;83.89
52935;BME280;38802;50.198;19.796;2023-04-01T07:06:25;94500.08;;;8.40;83.75
52935;BME280;38802;50.198;19.796;2023-04-01T07:08:58;94500.52;;;8.46;83.70
52935;BME280;38802;50.198;19.796;2023-04-01T07:11:53;94499.34;;;8.60;83.75
52935;BME280;38802;50.198;19.796;2023-04-01T07:15:42;94497.86;;;8.71;83.06
52935;BME280;38802;50.198;19.796;2023-04-01T07:18:18;94499.35;;;8.70;82.83
52935;BME280;38802;50.198;19.796;2023-04-01T07:20:50;94497.60;;;8.70;82.53
52935;BME280;38802;50.198;19.796;2023-04-01T07:23:28;94498.16;;;8.64;82.60
52935;BME280;38802;50.198;19.796;2023-04-01T07:26:19;94494.48;;;8.71;82.82
52935;BME280;38802;50.198;19.796;2023-04-01T07:29:13;94493.72;;;8.89;82.36
52935;BME280;38802;50.198;19.796;2023-04-01T07:32:03;94491.42;;;8.97;82.19
52935;BME280;38802;50.198;19.796;2023-04-01T07:34:54;94487.45;;;9.05;81.80
52935;BME280;38802;50.198;19.796;2023-04-01T07:40:36;94497.64;;;9.19;81.28
52935;BME280;38802;50.198;19.796;2023-04-01T07:46:38;94497.67;;;9.27;80.48
52935;BME280;38802;50.198;19.796;2023-04-01T07:49:22;94499.67;;;9.38;80.62
52935;BME280;38802;50.198;19.796;2023-04-01T07:52:01;94497.59;;;9.61;80.98
52935;BME280;38802;50.198;19.796;2023-04-01T08:01:05;94497.83;;;10.24;78.88
52935;BME280;38802;50.198;19.796;2023-04-01T08:06:53;94499.14;;;10.27;78.42
52935;BME280;38802;50.198;19.796;2023-04-01T08:09:43;94499.54;;;10.29;78.29
52935;BME280;38802;50.198;19.796;2023-04-01T08:21:27;94497.05;;;10.81;75.88
52935;BME280;38802;50.198;19.796;2023-04-01T08:23:57;94500.05;;;10.81;75.64
52935;BME280;38802;50.198;19.796;2023-04-01T08:26:42;94500.34;;;10.86;75.53
52935;BME280;38802;50.198;19.796;2023-04-01T08:29:16;94498.75;;;10.86;75.71
52935;BME280;38802;50.198;19.796;2023-04-01T08:34:28;94508.91;;;10.75;75.06
52935;BME280;38802;50.198;19.796;2023-04-01T08:37:13;94506.75;;;10.67;74.94
52935;BME280;38802;50.198;19.796;2023-04-01T08:46:17;94510.94;;;10.81;74.96
52935;BME280;38802;50.198;19.796;2023-04-01T08:57:53;94511.70;;;10.96;73.93
52935;BME280;38802;50.198;19.796;2023-04-01T09:00:47;94513.48;;;10.87;74.49
52935;BME280;38802;50.198;19.796;2023-04-01T09:03:58;94516.27;;;10.99;74.91
52935;BME280;38802;50.198;19.796;2023-04-01T09:28:38;94512.98;;;10.69;73.77
52935;BME280;38802;50.198;19.796;2023-04-01T09:43:26;94517.41;;;10.87;74.95
52935;BME280;38802;50.198;19.796;2023-04-01T09:46:16;94524.19;;;10.93;75.11
52935;BME280;38802;50.198;19.796;2023-04-01T09:54:32;94528.95;;;10.53;75.17
52935;BME280;38802;50.198;19.796;2023-04-01T09:57:30;94530.02;;;10.39;75.11
52935;BME280;38802;50.198;19.796;2023-04-01T10:06:32;94535.33;;;10.52;76.17
52935;BME280;38802;50.198;19.796;2023-04-01T10:20:38;94529.59;;;11.24;76.25
52935;BME280;38802;50.198;19.796;2023-04-01T10:23:16;94532.38;;;11.32;76.29
52935;BME280;38802;50.198;19.796;2023-04-01T10:49:47;94528.09;;;11.55;74.32
52935;BME280;38802;50.198;19.796;2023-04-01T10:59:36;94535.30;;;11.54;74.08
52935;BME280;38802;50.198;19.796;2023-04-01T11:12:12;94547.52;;;11.46;73.65
52935;BME280;38802;50.198;19.796;2023-04-01T11:45:30;94544.41;;;11.13;78.15
52935;BME280;38802;50.198;19.796;2023-04-01T11:50:48;94541.96;;;11.04;77.64
52935;BME280;38802;50.198;19.796;2023-04-01T11:56:26;94548.00;;;11.01;77.09
52935;BME280;38802;50.198;19.796;2023-04-01T12:07:21;94556.84;;;10.23;78.77
52935;BME280;38802;50.198;19.796;2023-04-01T12:10:19;94563.67;;;10.02;79.26
52935;BME280;38802;50.198;19.796;2023-04-01T12:13:02;94563.85;;;9.82;79.59
52935;BME280;38802;50.198;19.796;2023-04-01T12:21:15;94558.80;;;10.02;82.50
52935;BME280;38802;50.198;19.796;2023-04-01T12:26:39;94555.70;;;10.16;83.64
52935;BME280;38802;50.198;19.796;2023-04-01T12:49:45;94558.33;;;10.69;81.25
52935;BME280;38802;50.198;19.796;2023-04-01T12:52:28;94554.00;;;10.61;81.54
52935;BME280;38802;50.198;19.796;2023-04-01T12:58:38;94554.84;;;10.83;82.31
52935;BME280;38802;50.198;19.796;2023-04-01T13:10:27;94564.48;;;10.57;81.52
52935;BME280;38802;50.198;19.796;2023-04-01T13:15:52;94576.34;;;10.41;82.49
52935;BME280;38802;50.198;19.796;2023-04-01T13:18:36;94579.04;;;10.30;82.38
52935;BME280;38802;50.198;19.796;2023-04-01T13:26:40;94598.25;;;9.86;83.28
52935;BME280;38802;50.198;19.796;2023-04-01T13:44:11;94591.58;;;9.51;84.91
52935;BME280;38802;50.198;19.796;2023-04-01T14:20:51;94586.79;;;10.31;84.01
52935;BME280;38802;50.198;19.796;2023-04-01T14:26:34;94588.27;;;10.36;83.89
52935;BME280;38802;50.198;19.796;2023-04-01T14:29:24;94588.37;;;10.35;83.54
52935;BME280;38802;50.198;19.796;2023-04-01T14:35:19;94597.15;;;10.13;82.30
52935;BME280;38802;50.198;19.796;2023-04-01T14:40:55;94597.55;;;9.96;82.27
52935;BME280;38802;50.198;19.796;2023-04-01T14:43:33;94601.61;;;9.92;81.97
52935;BME280;38802;50.198;19.796;2023-04-01T14:46:34;94603.73;;;9.90;82.12
52935;BME280;38802;50.198;19.796;2023-04-01T14:49:30;94609.32;;;9.87;82.35
52935;BME280;38802;50.198;19.796;2023-04-01T14:52:09;94611.86;;;9.84;82.45
52935;BME280;38802;50.198;19.796;2023-04-01T14:54:42;94615.39;;;9.84;82.20
52935;BME280;38802;50.198;19.796;2023-04-01T14:59:51;94627.70;;;9.71;82.52
52935;BME280;38802;50.198;19.796;2023-04-01T15:05:26;94648.34;;;9.64;83.53
52935;BME280;38802;50.198;19.796;2023-04-01T15:19:54;94661.44;;;8.60;86.05
52935;BME280;38802;50.198;19.796;2023-04-01T15:28:47;94661.12;;;8.34;86.55
52935;BME280;38802;50.198;19.796;2023-04-01T15:40:22;94656.52;;;8.12;87.30
52935;BME280;38802;50.198;19.796;2023-04-01T15:46:41;94668.80;;;7.87;87.46
52935;BME280;38802;50.198;19.796;2023-04-01T15:49:43;94674.41;;;7.84;87.90
52935;BME280;38802;50.198;19.796;2023-04-01T16:09:19;94689.25;;;7.77;89.79
52935;BME280;38802;50.198;19.796;2023-04-01T16:12:15;94686.98;;;7.79;89.96
52935;BME280;38802;50.198;19.796;2023-04-01T16:14:58;94686.70;;;7.78;90.09
52935;BME280;38802;50.198;19.796;2023-04-01T16:23:22;94684.54;;;7.76;90.26
52935;BME280;38802;50.198;19.796;2023-04-01T16:26:17;94687.41;;;7.75;90.28
52935;BME280;38802;50.198;19.796;2023-04-01T16:29:08;94684.84;;;7.76;90.57
52935;BME280;38802;50.198;19.796;2023-04-01T16:31:45;94684.87;;;7.76;90.70
52935;BME280;38802;50.198;19.796;2023-04-01T16:40:13;94700.32;;;7.72;90.70
52935;BME280;38802;50.198;19.796;2023-04-01T16:42:51;94707.25;;;7.71;90.90
52935;BME280;38802;50.198;19.796;2023-04-01T16:50:49;94725.53;;;7.63;90.72
52935;BME280;38802;50.198;19.796;2023-04-01T16:53:34;94729.77;;;7.62;91.02
52935;BME280;38802;50.198;19.796;2023-04-01T16:56:12;94732.84;;;7.59;90.94
52935;BME280;38802;50.198;19.796;2023-04-01T17:01:26;94738.64;;;7.56;91.48
52935;BME280;38802;50.198;19.796;2023-04-01T17:04:07;94740.61;;;7.49;91.21
52935;BME280;38802;50.198;19.796;2023-04-01T17:06:52;94745.70;;;7.47;91.30
52935;BME280;38802;50.198;19.796;2023-04-01T17:09:37;94751.98;;;7.41;91.12
52935;BME280;38802;50.198;19.796;2023-04-01T17:15:20;94757.22;;;7.35;91.84
52935;BME280;38802;50.198;19.796;2023-04-01T17:21:08;94763.23;;;7.33;91.53
52935;BME280;38802;50.198;19.796;2023-04-01T17:27:11;94773.48;;;7.25;91.44
52935;BME280;38802;50.198;19.796;2023-04-01T17:33:05;94778.41;;;7.18;91.64
52935;BME280;38802;50.198;19.796;2023-04-01T17:36:09;94781.45;;;7.17;91.79
52935;BME280;38802;50.198;19.796;2023-04-01T17:52:52;94795.56;;;7.08;92.43
52935;BME280;38802;50.198;19.796;2023-04-01T17:58:10;94803.94;;;7.05;92.36
52935;BME280;38802;50.198;19.796;2023-04-01T18:06:59;94809.77;;;7.08;92.77
52935;BME280;38802;50.198;19.796;2023-04-01T18:09:37;94815.64;;;7.06;92.87
52935;BME280;38802;50.198;19.796;2023-04-01T18:12:32;94815.67;;;7.04;92.96
52935;BME280;38802;50.198;19.796;2023-04-01T18:15:19;94819.98;;;7.04;92.91
52935;BME280;38802;50.198;19.796;2023-04-01T18:21:00;94827.13;;;7.03;92.85
52935;BME280;38802;50.198;19.796;2023-04-01T18:23:46;94832.80;;;7.03;92.68
52935;BME280;38802;50.198;19.796;2023-04-01T18:26:31;94829.42;;;7.03;92.79
52935;BME280;38802;50.198;19.796;2023-04-01T18:32:17;94833.66;;;7.07;92.97
52935;BME280;38802;50.198;19.796;2023-04-01T18:35:16;94837.48;;;7.07;93.01
52935;BME280;38802;50.198;19.796;2023-04-01T18:40:24;94844.44;;;7.07;93.26
52935;BME280;38802;50.198;19.796;2023-04-01T18:45:58;94849.80;;;7.08;93.09
52935;BME280;38802;50.198;19.796;2023-04-01T18:51:18;94850.98;;;7.12;93.61
52935;BME280;38802;50.198;19.796;2023-04-01T18:54:07;94858.14;;;7.14;93.54
52935;BME280;38802;50.198;19.796;2023-04-01T18:56:44;94862.26;;;7.16;93.76
52935;BME280;38802;50.198;19.796;2023-04-01T18:59:32;94865.33;;;7.16;93.90
52935;BME280;38802;50.198;19.796;2023-04-01T19:02:14;94867.30;;;7.15;93.90
52935;BME280;38802;50.198;19.796;2023-04-01T19:09:48;94877.33;;;7.17;94.17
52935;BME280;38802;50.198;19.796;2023-04-01T19:25:58;94886.23;;;7.25;94.77
52935;BME280;38802;50.198;19.796;2023-04-01T19:34:34;94897.92;;;7.24;95.08
52935;BME280;38802;50.198;19.796;2023-04-01T19:45:41;94903.48;;;7.16;94.73
52935;BME280;38802;50.198;19.796;2023-04-01T19:48:44;94903.95;;;7.17;94.74
52935;BME280;38802;50.198;19.796;2023-04-01T19:57:16;94919.19;;;7.16;94.67
52935;BME280;38802;50.198;19.796;2023-04-01T20:11:43;94924.41;;;7.23;94.37
52935;BME280;38802;50.198;19.796;2023-04-01T20:19:44;94936.41;;;7.28;94.21
52935;BME280;38802;50.198;19.796;2023-04-01T20:24:51;94935.39;;;7.28;94.13
52935;BME280;38802;50.198;19.796;2023-04-01T20:27:24;94936.63;;;7.28;94.23
52935;BME280;38802;50.198;19.796;2023-04-01T20:38:35;94948.58;;;7.23;94.60
52935;BME280;38802;50.198;19.796;2023-04-01T20:44:20;94953.01;;;7.20;94.23
52935;BME280;38802;50.198;19.796;2023-04-01T20:49:39;94960.14;;;7.25;94.19
52935;BME280;38802;50.198;19.796;2023-04-01T20:52:41;94960.53;;;7.27;94.38
52935;BME280;38802;50.198;19.796;2023-04-01T20:55:23;94962.69;;;7.24;94.22
52935;BME280;38802;50.198;19.796;2023-04-01T21:12:16;94971.11;;;7.23;94.18
52935;BME280;38802;50.198;19.796;2023-04-01T21:20:19;94980.06;;;7.23;94.27
52935;BME280;38802;50.198;19.796;2023-04-01T21:28:46;94991.77;;;7.23;94.18
52935;BME280;38802;50.198;19.796;2023-04-01T21:31:53;94992.93;;;7.24;94.27
52935;BME280;38802;50.198;19.796;2023-04-01T21:37:31;94998.30;;;7.24;94.09
52935;BME280;38802;50.198;19.796;2023-04-01T22:01:16;95004.13;;;7.36;94.33
52935;BME280;38802;50.198;19.796;2023-04-01T22:06:42;95008.45;;;7.34;94.06
52935;BME280;38802;50.198;19.796;2023-04-01T22:09:38;95012.66;;;7.35;94.25
52935;BME280;38802;50.198;19.796;2023-04-01T22:12:30;95013.05;;;7.37;94.23
52935;BME280;38802;50.198;19.796;2023-04-01T22:17:55;95016.33;;;7.39;94.18
52935;BME280;38802;50.198;19.796;2023-04-01T22:20:48;95021.90;;;7.42;94.26
52935;BME280;38802;50.198;19.796;2023-04-01T22:23:22;95022.25;;;7.42;94.14
52935;BME280;38802;50.198;19.796;2023-04-01T22:26:03;95022.14;;;7.45;94.20
52935;BME280;38802;50.198;19.796;2023-04-01T22:31:03;95022.92;;;7.52;94.19
52935;BME280;38802;50.198;19.796;2023-04-01T22:33:52;95022.48;;;7.53;94.10
52935;BME280;38802;50.198;19.796;2023-04-01T22:36:56;95026.83;;;7.53;93.95
52935;BME280;38802;50.198;19.796;2023-04-01T22:50:05;95033.67;;;7.55;93.82
52935;BME280;38802;50.198;19.796;2023-04-01T22:52:42;95033.48;;;7.58;94.00
52935;BME280;38802;50.198;19.796;2023-04-01T22:55:20;95037.45;;;7.60;94.13
52935;BME280;38802;50.198;19.796;2023-04-01T22:58:21;95036.69;;;7.57;93.80
52935;BME280;38802;50.198;19.796;2023-04-01T23:00:56;95043.69;;;7.55;93.92
52935;BME280;38802;50.198;19.796;2023-04-01T23:03:30;95046.04;;;7.51;93.89
52935;BME280;38802;50.198;19.796;2023-04-01T23:06:02;95047.52;;;7.47;93.96
52935;BME280;38802;50.198;19.796;2023-04-01T23:08:48;95051.27;;;7.48;93.68
52935;BME280;38802;50.198;19.796;2023-04-01T23:11:35;95052.92;;;7.51;93.90
52935;BME280;38802;50.198;19.796;2023-04-01T23:25:46;95060.64;;;7.53;93.89
52935;BME280;38802;50.198;19.796;2023-04-01T23:35:55;95062.94;;;7.47;93.76
52935;BME280;38802;50.198;19.796;2023-04-01T23:38:25;95066.13;;;7.50;93.77
52935;BME280;38802;50.198;19.796;2023-04-01T23:40:54;95068.83;;;7.51;93.69
52935;BME280;38802;50.198;19.796;2023-04-01T23:43:26;95067.77;;;7.47;93.87
52935;BME280;38802;50.198;19.796;2023-04-01T23:45:56;95070.11;;;7.41;93.71
52935;BME280;38802;50.198;19.796;2023-04-01T23:48:31;95077.53;;;7.36;93.92
52935;BME280;38802;50.198;19.796;2023-04-01T23:51:00;95076.50;;;7.31;94.07
52935;BME280;38802;50.198;19.796;2023-04-01T23:53:33;95075.73;;;7.25;93.87
52935;BME280;38802;50.198;19.796;2023-04-01T23:56:03;95075.27;;;7.22;93.86
